sensor_id;sensor_type;location;lat;lon;timestamp;temperature;humidity
20155;DHT22;10238;49.556;10.956;2024-02-04T00:00:19;7.70;99.90
20155;DHT22;10238;49.556;10.956;2024-02-04T00:03:07;7.70;99.90
20155;DHT22;10238;49.556;10.956;2024-02-04T00:05:54;7.70;99.90
20155;DHT22;10238;49.556;10.956;2024-02-04T00:08:42;7.70;99.90
20155;DHT22;10238;49.556;10.956;2024-02-04T00:11:29;7.70;99.90
20155;DHT22;10238;49.556;10.956;2024-02-04T00:14:17;7.70;99.90
20155;DHT22;10238;49.556;10.956;2024-02-04T00:17:07;7.70;99.90
20155;DHT22;10238;49.556;10.956;2024-02-04T00:19:55;7.70;99.90
20155;DHT22;10238;49.556;10.956;2024-02-04T00:22:42;7.70;99.90
20155;DHT22;10238;49.556;10.956;2024-02-04T00:25:30;7.70;99.90
20155;DHT22;10238;49.556;10.956;2024-02-04T00:28:17;7.70;99.90
20155;DHT22;10238;49.556;10.956;2024-02-04T00:31:06;7.70;99.90
20155;DHT22;10238;49.556;10.956;2024-02-04T00:33:55;7.70;99.90
20155;DHT22;10238;49.556;10.956;2024-02-04T00:36:42;7.70;99.90
20155;DHT22;10238;49.556;10.956;2024-02-04T00:39:30;7.70;99.90
20155;DHT22;10238;49.556;10.956;2024-02-04T00:42:17;7.70;99.90
20155;DHT22;10238;49.556;10.956;2024-02-04T00:45:06;7.70;99.90
20155;DHT22;10238;49.556;10.956;2024-02-04T00:47:54;7.70;99.90
20155;DHT22;10238;49.556;10.956;2024-02-04T00:50:43;7.70;99.90
20155;DHT22;10238;49.556;10.956;2024-02-04T00:53:31;7.70;99.90
20155;DHT22;10238;49.556;10.956;2024-02-04T00:56:20;7.70;99.90
20155;DHT22;10238;49.556;10.956;2024-02-04T00:59:08;7.70;99.90
20155;DHT22;10238;49.556;10.956;2024-02-04T01:01:56;7.60;99.90
20155;DHT22;10238;49.556;10.956;2024-02-04T01:04:45;7.60;99.90
20155;DHT22;10238;49.556;10.956;2024-02-04T01:07:34;7.60;99.90
20155;DHT22;10238;49.556;10.956;2024-02-04T01:10:22;7.60;99.90
20155;DHT22;10238;49.556;10.956;2024-02-04T01:13:09;7.60;99.90
20155;DHT22;10238;49.556;10.956;2024-02-04T01:15:57;7.60;99.90
20155;DHT22;10238;49.556;10.956;2024-02-04T01:18:44;7.60;99.90
20155;DHT22;10238;49.556;10.956;2024-02-04T01:21:32;7.70;99.90
20155;DHT22;10238;49.556;10.956;2024-02-04T01:24:21;7.60;99.90
20155;DHT22;10238;49.556;10.956;2024-02-04T01:27:09;7.70;99.90
20155;DHT22;10238;49.556;10.956;2024-02-04T01:29:56;7.70;99.90
20155;DHT22;10238;49.556;10.956;2024-02-04T01:32:47;7.70;99.90
20155;DHT22;10238;49.556;10.956;2024-02-04T01:35:35;7.70;99.90
20155;DHT22;10238;49.556;10.956;2024-02-04T01:38:22;7.70;99.90
20155;DHT22;10238;49.556;10.956;2024-02-04T01:41:11;7.70;99.90
20155;DHT22;10238;49.556;10.956;2024-02-04T01:43:58;7.70;99.90
20155;DHT22;10238;49.556;10.956;2024-02-04T01:46:46;7.70;99.90
20155;DHT22;10238;49.556;10.956;2024-02-04T01:49:34;7.60;99.90
20155;DHT22;10238;49.556;10.956;2024-02-04T01:52:22;7.60;99.90
20155;DHT22;10238;49.556;10.956;2024-02-04T01:55:10;7.60;99.90
20155;DHT22;10238;49.556;10.956;2024-02-04T01:57:59;7.60;99.90
20155;DHT22;10238;49.556;10.956;2024-02-04T02:00:50;7.70;99.90
20155;DHT22;10238;49.556;10.956;2024-02-04T02:03:39;7.60;99.90
20155;DHT22;10238;49.556;10.956;2024-02-04T02:06:26;7.60;99.90
20155;DHT22;10238;49.556;10.956;2024-02-04T02:09:14;7.60;99.90
20155;DHT22;10238;49.556;10.956;2024-02-04T02:12:07;7.70;99.90
20155;DHT22;10238;49.556;10.956;2024-02-04T02:15:03;7.60;99.90
20155;DHT22;10238;49.556;10.956;2024-02-04T02:17:59;7.60;99.90
20155;DHT22;10238;49.556;10.956;2024-02-04T02:20:59;7.60;99.90
20155;DHT22;10238;49.556;10.956;2024-02-04T02:24:04;7.70;99.90
20155;DHT22;10238;49.556;10.956;2024-02-04T02:26:59;7.60;99.90
20155;DHT22;10238;49.556;10.956;2024-02-04T02:29:48;7.60;99.90
20155;DHT22;10238;49.556;10.956;2024-02-04T02:32:35;7.60;99.90
20155;DHT22;10238;49.556;10.956;2024-02-04T02:35:23;7.60;99.90
20155;DHT22;10238;49.556;10.956;2024-02-04T02:38:22;7.60;99.90
20155;DHT22;10238;49.556;10.956;2024-02-04T02:41:17;7.60;99.90
20155;DHT22;10238;49.556;10.956;2024-02-04T02:44:12;7.60;99.90
20155;DHT22;10238;49.556;10.956;2024-02-04T02:47:03;7.60;99.90
20155;DHT22;10238;49.556;10.956;2024-02-04T02:49:54;7.60;99.90
20155;DHT22;10238;49.556;10.956;2024-02-04T02:52:42;7.60;99.90
20155;DHT22;10238;49.556;10.956;2024-02-04T02:55:29;7.60;99.90
20155;DHT22;10238;49.556;10.956;2024-02-04T02:58:17;7.60;99.90
20155;DHT22;10238;49.556;10.956;2024-02-04T03:01:06;7.60;99.90
20155;DHT22;10238;49.556;10.956;2024-02-04T03:03:53;7.60;99.90
20155;DHT22;10238;49.556;10.956;2024-02-04T03:06:41;7.60;99.90
20155;DHT22;10238;49.556;10.956;2024-02-04T03:09:29;7.60;99.90
20155;DHT22;10238;49.556;10.956;2024-02-04T03:12:16;7.50;99.90
20155;DHT22;10238;49.556;10.956;2024-02-04T03:15:05;7.50;99.90
20155;DHT22;10238;49.556;10.956;2024-02-04T03:17:55;7.60;99.90
20155;DHT22;10238;49.556;10.956;2024-02-04T03:20:42;7.50;99.90
20155;DHT22;10238;49.556;10.956;2024-02-04T03:23:30;7.50;99.90
20155;DHT22;10238;49.556;10.956;2024-02-04T03:26:18;7.50;99.90
20155;DHT22;10238;49.556;10.956;2024-02-04T03:29:06;7.50;99.90
20155;DHT22;10238;49.556;10.956;2024-02-04T03:31:55;7.60;99.90
20155;DHT22;10238;49.556;10.956;2024-02-04T03:34:44;7.50;99.90
20155;DHT22;10238;49.556;10.956;2024-02-04T03:37:32;7.50;99.90
20155;DHT22;10238;49.556;10.956;2024-02-04T03:40:20;7.50;99.90
20155;DHT22;10238;49.556;10.956;2024-02-04T03:43:12;7.40;99.90
20155;DHT22;10238;49.556;10.956;2024-02-04T03:46:00;7.50;99.90
20155;DHT22;10238;49.556;10.956;2024-02-04T03:48:48;7.40;99.90
20155;DHT22;10238;49.556;10.956;2024-02-04T03:51:37;7.40;99.90
20155;DHT22;10238;49.556;10.956;2024-02-04T03:54:25;7.40;99.90
20155;DHT22;10238;49.556;10.956;2024-02-04T03:57:13;7.40;99.90
20155;DHT22;10238;49.556;10.956;2024-02-04T04:00:00;7.40;99.90
20155;DHT22;10238;49.556;10.956;2024-02-04T04:02:48;7.40;99.90
20155;DHT22;10238;49.556;10.956;2024-02-04T04:05:35;7.30;99.90
20155;DHT22;10238;49.556;10.956;2024-02-04T04:08:25;7.30;99.90
20155;DHT22;10238;49.556;10.956;2024-02-04T04:11:12;7.30;99.90
20155;DHT22;10238;49.556;10.956;2024-02-04T04:13:59;7.30;99.90
20155;DHT22;10238;49.556;10.956;2024-02-04T04:16:47;7.30;99.90
20155;DHT22;10238;49.556;10.956;2024-02-04T04:19:35;7.30;99.90
20155;DHT22;10238;49.556;10.956;2024-02-04T04:22:23;7.30;99.90
20155;DHT22;10238;49.556;10.956;2024-02-04T04:25:12;7.30;99.90
20155;DHT22;10238;49.556;10.956;2024-02-04T04:28:01;7.30;99.90
20155;DHT22;10238;49.556;10.956;2024-02-04T04:30:49;7.30;99.90
20155;DHT22;10238;49.556;10.956;2024-02-04T04:33:40;7.30;99.90
20155;DHT22;10238;49.556;10.956;2024-02-04T04:36:28;7.30;99.90
20155;DHT22;10238;49.556;10.956;2024-02-04T04:39:15;7.30;99.90
20155;DHT22;10238;49.556;10.956;2024-02-04T04:42:05;7.30;99.90
20155;DHT22;10238;49.556;10.956;2024-02-04T04:44:52;7.30;99.90
20155;DHT22;10238;49.556;10.956;2024-02-04T04:47:40;7.30;99.90
20155;DHT22;10238;49.556;10.956;2024-02-04T04:50:27;7.30;99.90
20155;DHT22;10238;49.556;10.956;2024-02-04T04:53:15;7.30;99.90
20155;DHT22;10238;49.556;10.956;2024-02-04T04:56:03;7.30;99.90
20155;DHT22;10238;49.556;10.956;2024-02-04T04:58:53;7.30;99.90
20155;DHT22;10238;49.556;10.956;2024-02-04T05:01:45;7.30;99.90
20155;DHT22;10238;49.556;10.956;2024-02-04T05:04:33;7.30;99.90
20155;DHT22;10238;49.556;10.956;2024-02-04T05:07:21;7.30;99.90
20155;DHT22;10238;49.556;10.956;2024-02-04T05:10:12;7.30;99.90
20155;DHT22;10238;49.556;10.956;2024-02-04T05:13:00;7.30;99.90
20155;DHT22;10238;49.556;10.956;2024-02-04T05:15:49;7.30;99.90
20155;DHT22;10238;49.556;10.956;2024-02-04T05:18:37;7.20;99.90
20155;DHT22;10238;49.556;10.956;2024-02-04T05:21:25;7.20;99.90
20155;DHT22;10238;49.556;10.956;2024-02-04T05:24:13;7.20;99.90
20155;DHT22;10238;49.556;10.956;2024-02-04T05:27:00;7.20;99.90
20155;DHT22;10238;49.556;10.956;2024-02-04T05:29:47;7.20;99.90
20155;DHT22;10238;49.556;10.956;2024-02-04T05:32:36;7.20;99.90
20155;DHT22;10238;49.556;10.956;2024-02-04T05:35:24;7.20;99.90
20155;DHT22;10238;49.556;10.956;2024-02-04T05:38:12;7.20;99.90
20155;DHT22;10238;49.556;10.956;2024-02-04T05:40:59;7.20;99.90
20155;DHT22;10238;49.556;10.956;2024-02-04T05:43:47;7.20;99.90
20155;DHT22;10238;49.556;10.956;2024-02-04T05:46:34;7.20;99.90
20155;DHT22;10238;49.556;10.956;2024-02-04T05:49:24;7.20;99.90
20155;DHT22;10238;49.556;10.956;2024-02-04T05:52:12;7.20;99.90
20155;DHT22;10238;49.556;10.956;2024-02-04T05:55:01;7.10;99.90
20155;DHT22;10238;49.556;10.956;2024-02-04T05:57:51;7.10;99.90
20155;DHT22;10238;49.556;10.956;2024-02-04T06:00:38;7.10;99.90
20155;DHT22;10238;49.556;10.956;2024-02-04T06:03:26;7.10;99.90
20155;DHT22;10238;49.556;10.956;2024-02-04T06:06:18;7.10;99.90
20155;DHT22;10238;49.556;10.956;2024-02-04T06:09:06;7.00;99.90
20155;DHT22;10238;49.556;10.956;2024-02-04T06:11:55;7.00;99.90
20155;DHT22;10238;49.556;10.956;2024-02-04T06:14:42;7.00;99.90
20155;DHT22;10238;49.556;10.956;2024-02-04T06:17:30;7.00;99.90
20155;DHT22;10238;49.556;10.956;2024-02-04T06:20:18;7.00;99.90
20155;DHT22;10238;49.556;10.956;2024-02-04T06:23:07;7.00;99.90
20155;DHT22;10238;49.556;10.956;2024-02-04T06:25:54;7.00;99.90
20155;DHT22;10238;49.556;10.956;2024-02-04T06:28:42;7.00;99.90
20155;DHT22;10238;49.556;10.956;2024-02-04T06:31:32;7.00;99.90
20155;DHT22;10238;49.556;10.956;2024-02-04T06:34:20;7.10;99.90
20155;DHT22;10238;49.556;10.956;2024-02-04T06:37:07;7.10;99.90
20155;DHT22;10238;49.556;10.956;2024-02-04T06:39:56;7.10;99.90
20155;DHT22;10238;49.556;10.956;2024-02-04T06:42:44;7.10;99.90
20155;DHT22;10238;49.556;10.956;2024-02-04T06:45:31;7.10;99.90
20155;DHT22;10238;49.556;10.956;2024-02-04T06:48:19;7.10;99.90
20155;DHT22;10238;49.556;10.956;2024-02-04T06:51:07;7.10;99.90
20155;DHT22;10238;49.556;10.956;2024-02-04T06:53:55;7.10;99.90
20155;DHT22;10238;49.556;10.956;2024-02-04T06:56:44;7.10;99.90
20155;DHT22;10238;49.556;10.956;2024-02-04T06:59:31;7.10;99.90
20155;DHT22;10238;49.556;10.956;2024-02-04T07:02:20;7.20;99.90
20155;DHT22;10238;49.556;10.956;2024-02-04T07:05:08;7.20;99.90
20155;DHT22;10238;49.556;10.956;2024-02-04T07:07:56;7.20;99.90
20155;DHT22;10238;49.556;10.956;2024-02-04T07:10:44;7.20;99.90
20155;DHT22;10238;49.556;10.956;2024-02-04T07:13:33;7.20;99.90
20155;DHT22;10238;49.556;10.956;2024-02-04T07:16:21;7.20;99.90
20155;DHT22;10238;49.556;10.956;2024-02-04T07:19:10;7.30;99.90
20155;DHT22;10238;49.556;10.956;2024-02-04T07:21:57;7.30;99.90
20155;DHT22;10238;49.556;10.956;2024-02-04T07:24:45;7.30;99.90
20155;DHT22;10238;49.556;10.956;2024-02-04T07:27:33;7.30;99.90
20155;DHT22;10238;49.556;10.956;2024-02-04T07:30:22;7.40;99.90
20155;DHT22;10238;49.556;10.956;2024-02-04T07:33:09;7.30;99.90
20155;DHT22;10238;49.556;10.956;2024-02-04T07:35:57;7.40;99.90
20155;DHT22;10238;49.556;10.956;2024-02-04T07:38:44;7.40;99.90
20155;DHT22;10238;49.556;10.956;2024-02-04T07:41:32;7.40;99.90
20155;DHT22;10238;49.556;10.956;2024-02-04T07:44:20;7.40;99.90
20155;DHT22;10238;49.556;10.956;2024-02-04T07:47:10;7.40;99.90
20155;DHT22;10238;49.556;10.956;2024-02-04T07:50:01;7.40;99.90
20155;DHT22;10238;49.556;10.956;2024-02-04T07:52:49;7.40;99.90
20155;DHT22;10238;49.556;10.956;2024-02-04T07:55:36;7.50;99.90
20155;DHT22;10238;49.556;10.956;2024-02-04T07:58:24;7.50;99.90
20155;DHT22;10238;49.556;10.956;2024-02-04T08:01:13;7.50;99.90
20155;DHT22;10238;49.556;10.956;2024-02-04T08:04:02;7.50;99.90
20155;DHT22;10238;49.556;10.956;2024-02-04T08:06:52;7.60;99.90
20155;DHT22;10238;49.556;10.956;2024-02-04T08:09:39;7.60;99.90
20155;DHT22;10238;49.556;10.956;2024-02-04T08:12:27;7.60;99.90
20155;DHT22;10238;49.556;10.956;2024-02-04T08:15:15;7.60;99.90
20155;DHT22;10238;49.556;10.956;2024-02-04T08:18:04;7.70;99.90
20155;DHT22;10238;49.556;10.956;2024-02-04T08:20:55;7.70;99.90
20155;DHT22;10238;49.556;10.956;2024-02-04T08:23:43;7.70;99.90
20155;DHT22;10238;49.556;10.956;2024-02-04T08:26:33;7.70;99.90
20155;DHT22;10238;49.556;10.956;2024-02-04T08:29:20;7.80;99.90
20155;DHT22;10238;49.556;10.956;2024-02-04T08:32:08;7.80;99.90
20155;DHT22;10238;49.556;10.956;2024-02-04T08:34:55;7.80;99.90
20155;DHT22;10238;49.556;10.956;2024-02-04T08:37:45;7.80;99.90
20155;DHT22;10238;49.556;10.956;2024-02-04T08:40:32;7.80;99.90
20155;DHT22;10238;49.556;10.956;2024-02-04T08:43:20;7.90;99.90
20155;DHT22;10238;49.556;10.956;2024-02-04T08:46:08;7.90;99.90
20155;DHT22;10238;49.556;10.956;2024-02-04T08:48:59;7.90;99.90
20155;DHT22;10238;49.556;10.956;2024-02-04T08:51:47;7.90;99.90
20155;DHT22;10238;49.556;10.956;2024-02-04T08:54:36;8.00;99.90
20155;DHT22;10238;49.556;10.956;2024-02-04T08:57:23;8.00;99.90
20155;DHT22;10238;49.556;10.956;2024-02-04T09:00:12;8.10;99.90
20155;DHT22;10238;49.556;10.956;2024-02-04T09:03:00;8.10;99.90
20155;DHT22;10238;49.556;10.956;2024-02-04T09:05:47;8.10;99.90
20155;DHT22;10238;49.556;10.956;2024-02-04T09:08:35;8.10;99.90
20155;DHT22;10238;49.556;10.956;2024-02-04T09:11:24;8.20;99.90
20155;DHT22;10238;49.556;10.956;2024-02-04T09:14:12;8.20;99.90
20155;DHT22;10238;49.556;10.956;2024-02-04T09:17:02;8.30;99.90
20155;DHT22;10238;49.556;10.956;2024-02-04T09:19:50;8.30;99.90
20155;DHT22;10238;49.556;10.956;2024-02-04T09:22:39;8.40;99.90
20155;DHT22;10238;49.556;10.956;2024-02-04T09:25:27;8.40;99.90
20155;DHT22;10238;49.556;10.956;2024-02-04T09:28:16;8.40;99.90
20155;DHT22;10238;49.556;10.956;2024-02-04T09:31:04;8.50;99.90
20155;DHT22;10238;49.556;10.956;2024-02-04T09:33:54;8.50;99.90
20155;DHT22;10238;49.556;10.956;2024-02-04T09:36:43;8.60;99.90
20155;DHT22;10238;49.556;10.956;2024-02-04T09:39:31;8.60;99.90
20155;DHT22;10238;49.556;10.956;2024-02-04T09:42:20;8.60;99.90
20155;DHT22;10238;49.556;10.956;2024-02-04T09:45:13;8.70;99.90
20155;DHT22;10238;49.556;10.956;2024-02-04T09:48:02;8.70;99.90
20155;DHT22;10238;49.556;10.956;2024-02-04T09:50:52;8.80;99.90
20155;DHT22;10238;49.556;10.956;2024-02-04T09:53:44;8.90;99.90
20155;DHT22;10238;49.556;10.956;2024-02-04T09:56:33;9.00;99.90
20155;DHT22;10238;49.556;10.956;2024-02-04T09:59:22;9.00;99.90
20155;DHT22;10238;49.556;10.956;2024-02-04T10:02:11;9.10;99.90
20155;DHT22;10238;49.556;10.956;2024-02-04T10:05:05;9.10;99.90
20155;DHT22;10238;49.556;10.956;2024-02-04T10:07:55;9.20;99.90
20155;DHT22;10238;49.556;10.956;2024-02-04T10:10:43;9.40;99.90
20155;DHT22;10238;49.556;10.956;2024-02-04T10:13:42;9.40;99.90
20155;DHT22;10238;49.556;10.956;2024-02-04T10:16:31;9.50;99.90
20155;DHT22;10238;49.556;10.956;2024-02-04T10:19:20;9.50;99.90
20155;DHT22;10238;49.556;10.956;2024-02-04T10:22:11;9.60;99.90
20155;DHT22;10238;49.556;10.956;2024-02-04T10:25:06;9.60;99.90
20155;DHT22;10238;49.556;10.956;2024-02-04T10:27:54;9.70;99.90
20155;DHT22;10238;49.556;10.956;2024-02-04T10:30:44;9.80;99.90
20155;DHT22;10238;49.556;10.956;2024-02-04T10:33:31;9.90;99.90
20155;DHT22;10238;49.556;10.956;2024-02-04T10:36:20;9.90;99.90
20155;DHT22;10238;49.556;10.956;2024-02-04T10:39:08;9.90;99.90
20155;DHT22;10238;49.556;10.956;2024-02-04T10:42:01;10.00;99.90
20155;DHT22;10238;49.556;10.956;2024-02-04T10:44:52;10.00;99.90
20155;DHT22;10238;49.556;10.956;2024-02-04T10:47:43;10.10;99.90
20155;DHT22;10238;49.556;10.956;2024-02-04T10:50:40;10.00;99.90
20155;DHT22;10238;49.556;10.956;2024-02-04T10:53:34;10.10;99.90
20155;DHT22;10238;49.556;10.956;2024-02-04T10:56:25;10.00;99.90
20155;DHT22;10238;49.556;10.956;2024-02-04T10:59:18;10.00;99.90
20155;DHT22;10238;49.556;10.956;2024-02-04T11:02:08;10.10;99.90
20155;DHT22;10238;49.556;10.956;2024-02-04T11:04:58;10.00;99.90
20155;DHT22;10238;49.556;10.956;2024-02-04T11:07:48;10.00;99.90
20155;DHT22;10238;49.556;10.956;2024-02-04T11:10:39;10.00;99.90
20155;DHT22;10238;49.556;10.956;2024-02-04T11:13:28;10.00;99.90
20155;DHT22;10238;49.556;10.956;2024-02-04T11:16:31;9.90;99.90
20155;DHT22;10238;49.556;10.956;2024-02-04T11:19:40;9.90;99.90
20155;DHT22;10238;49.556;10.956;2024-02-04T11:22:52;9.90;99.90
20155;DHT22;10238;49.556;10.956;2024-02-04T11:25:55;9.80;99.90
20155;DHT22;10238;49.556;10.956;2024-02-04T11:28:45;9.80;99.90
20155;DHT22;10238;49.556;10.956;2024-02-04T11:31:33;9.80;99.90
20155;DHT22;10238;49.556;10.956;2024-02-04T11:34:23;9.70;99.90
20155;DHT22;10238;49.556;10.956;2024-02-04T11:37:18;9.70;99.90
20155;DHT22;10238;49.556;10.956;2024-02-04T11:40:13;9.70;99.90
20155;DHT22;10238;49.556;10.956;2024-02-04T11:43:11;9.70;99.90
20155;DHT22;10238;49.556;10.956;2024-02-04T11:46:00;9.70;99.90
20155;DHT22;10238;49.556;10.956;2024-02-04T11:48:54;9.70;99.90
20155;DHT22;10238;49.556;10.956;2024-02-04T11:51:45;9.70;99.90
20155;DHT22;10238;49.556;10.956;2024-02-04T11:54:34;9.70;99.90
20155;DHT22;10238;49.556;10.956;2024-02-04T11:57:23;9.70;99.90
20155;DHT22;10238;49.556;10.956;2024-02-04T12:00:13;9.70;99.90
20155;DHT22;10238;49.556;10.956;2024-02-04T12:03:04;9.70;99.90
20155;DHT22;10238;49.556;10.956;2024-02-04T12:05:52;9.70;99.90
20155;DHT22;10238;49.556;10.956;2024-02-04T12:08:40;9.70;99.90
20155;DHT22;10238;49.556;10.956;2024-02-04T12:11:29;9.70;99.90
20155;DHT22;10238;49.556;10.956;2024-02-04T12:14:18;9.70;99.90
20155;DHT22;10238;49.556;10.956;2024-02-04T12:17:09;9.70;99.90
20155;DHT22;10238;49.556;10.956;2024-02-04T12:19:58;9.70;99.90
20155;DHT22;10238;49.556;10.956;2024-02-04T12:22:46;9.70;99.90
20155;DHT22;10238;49.556;10.956;2024-02-04T12:25:35;9.60;99.90
20155;DHT22;10238;49.556;10.956;2024-02-04T12:28:28;9.60;99.90
20155;DHT22;10238;49.556;10.956;2024-02-04T12:31:17;9.70;99.90
20155;DHT22;10238;49.556;10.956;2024-02-04T12:34:08;9.70;99.90
20155;DHT22;10238;49.556;10.956;2024-02-04T12:37:01;9.70;99.90
20155;DHT22;10238;49.556;10.956;2024-02-04T12:39:49;9.70;99.90
20155;DHT22;10238;49.556;10.956;2024-02-04T12:42:37;9.60;99.90
20155;DHT22;10238;49.556;10.956;2024-02-04T12:45:26;9.60;99.90
20155;DHT22;10238;49.556;10.956;2024-02-04T12:48:15;9.60;99.90
20155;DHT22;10238;49.556;10.956;2024-02-04T12:51:06;9.60;99.90
20155;DHT22;10238;49.556;10.956;2024-02-04T12:54:05;9.60;99.90
20155;DHT22;10238;49.556;10.956;2024-02-04T12:56:54;9.60;99.90
20155;DHT22;10238;49.556;10.956;2024-02-04T12:59:44;9.60;99.90
20155;DHT22;10238;49.556;10.956;2024-02-04T13:02:32;9.60;99.90
20155;DHT22;10238;49.556;10.956;2024-02-04T13:05:24;9.60;99.90
20155;DHT22;10238;49.556;10.956;2024-02-04T13:08:14;9.60;99.90
20155;DHT22;10238;49.556;10.956;2024-02-04T13:11:06;9.60;99.90
20155;DHT22;10238;49.556;10.956;2024-02-04T13:13:53;9.50;99.90
20155;DHT22;10238;49.556;10.956;2024-02-04T13:16:41;9.50;99.90
20155;DHT22;10238;49.556;10.956;2024-02-04T13:19:33;9.60;99.90
20155;DHT22;10238;49.556;10.956;2024-02-04T13:22:22;9.60;99.90
20155;DHT22;10238;49.556;10.956;2024-02-04T13:25:11;9.60;99.90
20155;DHT22;10238;49.556;10.956;2024-02-04T13:27:59;9.70;99.90
20155;DHT22;10238;49.556;10.956;2024-02-04T13:30:48;9.80;99.90
20155;DHT22;10238;49.556;10.956;2024-02-04T13:33:37;9.80;99.90
20155;DHT22;10238;49.556;10.956;2024-02-04T13:36:26;9.90;99.90
20155;DHT22;10238;49.556;10.956;2024-02-04T13:39:14;9.80;99.90
20155;DHT22;10238;49.556;10.956;2024-02-04T13:42:05;9.80;99.90
20155;DHT22;10238;49.556;10.956;2024-02-04T13:44:53;9.80;99.90
20155;DHT22;10238;49.556;10.956;2024-02-04T13:47:40;9.80;99.90
20155;DHT22;10238;49.556;10.956;2024-02-04T13:50:29;9.80;99.90
20155;DHT22;10238;49.556;10.956;2024-02-04T13:53:16;9.70;99.90
20155;DHT22;10238;49.556;10.956;2024-02-04T13:56:04;9.70;99.90
20155;DHT22;10238;49.556;10.956;2024-02-04T13:58:53;9.70;99.90
20155;DHT22;10238;49.556;10.956;2024-02-04T14:01:42;9.70;99.90
20155;DHT22;10238;49.556;10.956;2024-02-04T14:04:31;9.70;99.90
20155;DHT22;10238;49.556;10.956;2024-02-04T14:07:19;9.60;99.90
20155;DHT22;10238;49.556;10.956;2024-02-04T14:10:08;9.60;99.90
20155;DHT22;10238;49.556;10.956;2024-02-04T14:12:58;9.60;99.90
20155;DHT22;10238;49.556;10.956;2024-02-04T14:15:54;9.60;99.90
20155;DHT22;10238;49.556;10.956;2024-02-04T14:18:42;9.50;99.90
20155;DHT22;10238;49.556;10.956;2024-02-04T14:21:35;9.50;99.90
20155;DHT22;10238;49.556;10.956;2024-02-04T14:24:23;9.50;99.90
20155;DHT22;10238;49.556;10.956;2024-02-04T14:27:11;9.50;99.90
20155;DHT22;10238;49.556;10.956;2024-02-04T14:30:00;9.50;99.90
20155;DHT22;10238;49.556;10.956;2024-02-04T14:32:48;9.40;99.90
20155;DHT22;10238;49.556;10.956;2024-02-04T14:35:37;9.40;99.90
20155;DHT22;10238;49.556;10.956;2024-02-04T14:38:25;9.40;99.90
20155;DHT22;10238;49.556;10.956;2024-02-04T14:41:12;9.30;99.90
20155;DHT22;10238;49.556;10.956;2024-02-04T14:44:00;9.30;99.90
20155;DHT22;10238;49.556;10.956;2024-02-04T14:46:57;9.30;99.90
20155;DHT22;10238;49.556;10.956;2024-02-04T14:49:46;9.30;99.90
20155;DHT22;10238;49.556;10.956;2024-02-04T14:52:35;9.20;99.90
20155;DHT22;10238;49.556;10.956;2024-02-04T14:55:22;9.20;99.90
20155;DHT22;10238;49.556;10.956;2024-02-04T14:58:10;9.20;99.90
20155;DHT22;10238;49.556;10.956;2024-02-04T15:00:58;9.20;99.90
20155;DHT22;10238;49.556;10.956;2024-02-04T15:03:46;9.20;99.90
20155;DHT22;10238;49.556;10.956;2024-02-04T15:06:35;9.10;99.90
20155;DHT22;10238;49.556;10.956;2024-02-04T15:09:23;9.10;99.90
20155;DHT22;10238;49.556;10.956;2024-02-04T15:12:11;9.10;99.90
20155;DHT22;10238;49.556;10.956;2024-02-04T15:15:04;9.10;99.90
20155;DHT22;10238;49.556;10.956;2024-02-04T15:17:54;9.10;99.90
20155;DHT22;10238;49.556;10.956;2024-02-04T15:20:43;9.10;99.90
20155;DHT22;10238;49.556;10.956;2024-02-04T15:23:35;9.20;99.90
20155;DHT22;10238;49.556;10.956;2024-02-04T15:26:23;9.10;99.90
20155;DHT22;10238;49.556;10.956;2024-02-04T15:29:13;9.10;99.90
20155;DHT22;10238;49.556;10.956;2024-02-04T15:32:03;9.10;99.90
20155;DHT22;10238;49.556;10.956;2024-02-04T15:34:52;9.10;99.90
20155;DHT22;10238;49.556;10.956;2024-02-04T15:37:40;9.00;99.90
20155;DHT22;10238;49.556;10.956;2024-02-04T15:40:30;9.00;99.90
20155;DHT22;10238;49.556;10.956;2024-02-04T15:43:18;9.00;99.90
20155;DHT22;10238;49.556;10.956;2024-02-04T15:46:08;9.00;99.90
20155;DHT22;10238;49.556;10.956;2024-02-04T15:48:59;9.00;99.90
20155;DHT22;10238;49.556;10.956;2024-02-04T15:51:50;8.90;99.90
20155;DHT22;10238;49.556;10.956;2024-02-04T15:54:40;8.90;99.90
20155;DHT22;10238;49.556;10.956;2024-02-04T15:57:33;8.90;99.90
20155;DHT22;10238;49.556;10.956;2024-02-04T16:00:25;8.90;99.90
20155;DHT22;10238;49.556;10.956;2024-02-04T16:03:14;8.90;99.90
20155;DHT22;10238;49.556;10.956;2024-02-04T16:06:04;8.90;99.90
20155;DHT22;10238;49.556;10.956;2024-02-04T16:08:53;8.90;99.90
20155;DHT22;10238;49.556;10.956;2024-02-04T16:11:44;8.80;99.90
20155;DHT22;10238;49.556;10.956;2024-02-04T16:14:48;8.80;99.90
20155;DHT22;10238;49.556;10.956;2024-02-04T16:17:38;8.80;99.90
20155;DHT22;10238;49.556;10.956;2024-02-04T16:20:26;8.80;99.90
20155;DHT22;10238;49.556;10.956;2024-02-04T16:23:15;8.80;99.90
20155;DHT22;10238;49.556;10.956;2024-02-04T16:26:03;8.80;99.90
20155;DHT22;10238;49.556;10.956;2024-02-04T16:28:50;8.80;99.90
20155;DHT22;10238;49.556;10.956;2024-02-04T16:31:40;8.80;99.90
20155;DHT22;10238;49.556;10.956;2024-02-04T16:34:28;8.80;99.90
20155;DHT22;10238;49.556;10.956;2024-02-04T16:37:20;8.80;99.90
20155;DHT22;10238;49.556;10.956;2024-02-04T16:40:08;8.80;99.90
20155;DHT22;10238;49.556;10.956;2024-02-04T16:42:59;8.80;99.90
20155;DHT22;10238;49.556;10.956;2024-02-04T16:45:46;8.80;99.90
20155;DHT22;10238;49.556;10.956;2024-02-04T16:48:36;8.80;99.90
20155;DHT22;10238;49.556;10.956;2024-02-04T16:51:25;8.80;99.90
20155;DHT22;10238;49.556;10.956;2024-02-04T16:54:16;8.80;99.90
20155;DHT22;10238;49.556;10.956;2024-02-04T16:57:04;8.70;99.90
20155;DHT22;10238;49.556;10.956;2024-02-04T16:59:53;8.80;99.90
20155;DHT22;10238;49.556;10.956;2024-02-04T17:02:43;8.80;99.90
20155;DHT22;10238;49.556;10.956;2024-02-04T17:05:33;8.70;99.90
20155;DHT22;10238;49.556;10.956;2024-02-04T17:08:41;8.80;99.90
20155;DHT22;10238;49.556;10.956;2024-02-04T17:11:30;8.70;99.90
20155;DHT22;10238;49.556;10.956;2024-02-04T17:14:19;8.70;99.90
20155;DHT22;10238;49.556;10.956;2024-02-04T17:17:11;8.70;99.90
20155;DHT22;10238;49.556;10.956;2024-02-04T17:20:08;8.70;99.90
20155;DHT22;10238;49.556;10.956;2024-02-04T17:23:07;8.70;99.90
20155;DHT22;10238;49.556;10.956;2024-02-04T17:25:59;8.70;99.90
20155;DHT22;10238;49.556;10.956;2024-02-04T17:28:48;8.70;99.90
20155;DHT22;10238;49.556;10.956;2024-02-04T17:31:38;8.70;99.90
20155;DHT22;10238;49.556;10.956;2024-02-04T17:34:26;8.70;99.90
20155;DHT22;10238;49.556;10.956;2024-02-04T17:37:15;8.70;99.90
20155;DHT22;10238;49.556;10.956;2024-02-04T17:40:06;8.70;99.90
20155;DHT22;10238;49.556;10.956;2024-02-04T17:42:56;8.70;99.90
20155;DHT22;10238;49.556;10.956;2024-02-04T17:45:43;8.70;99.90
20155;DHT22;10238;49.556;10.956;2024-02-04T17:48:31;8.70;99.90